Time;durP1;ratioP1;P1;durP2;ratioP2;P2;SDS_P1;SDS_P2;PMS_P1;PMS_P2;Temp;Humidity;BMP_temperature;BMP_pressure;BME280_temperature;BME280_humidity;BME280_pressure;Samples;Min_cycle;Max_cycle;Signal;HPM_P1;HPM_P2
2023/10/30 00:00:09;;;;;;;3.33;0.32;;;13.40;99.90;;;;;;4995643;28;20099;-62
2023/10/30 00:02:36;;;;;;;2.80;0.30;;;13.40;99.90;;;;;;5001512;28;20146;-62
2023/10/30 00:05:03;;;;;;;0.65;0.25;;;13.30;99.90;;;;;;4997343;28;20134;-62
2023/10/30 00:07:28;;;;;;;1.35;0.35;;;13.30;99.90;;;;;;5000875;28;20049;-62
2023/10/30 00:09:54;;;;;;;2.60;0.45;;;13.40;99.90;;;;;;5003354;28;20034;-62
2023/10/30 00:12:20;;;;;;;1.65;0.30;;;13.40;99.90;;;;;;4997574;28;20046;-62
2023/10/30 00:14:46;;;;;;;0.28;0.20;;;13.50;99.90;;;;;;4999807;28;20026;-62
2023/10/30 00:17:12;;;;;;;0.20;0.20;;;13.60;99.90;;;;;;4997349;28;20033;-62
2023/10/30 00:19:38;;;;;;;0.20;0.20;;;13.60;99.90;;;;;;5002841;28;20033;-62
2023/10/30 00:22:04;;;;;;;3.20;0.43;;;13.60;99.90;;;;;;5031822;28;20062;-62
2023/10/30 00:24:32;;;;;;;0.65;0.20;;;13.50;99.90;;;;;;5000122;28;20048;-62
2023/10/30 00:26:58;;;;;;;0.57;0.30;;;13.60;99.90;;;;;;5016959;28;20573;-62
2023/10/30 00:29:24;;;;;;;0.10;0.10;;;13.60;99.90;;;;;;4999087;28;20565;-64
2023/10/30 00:31:50;;;;;;;0.60;0.40;;;13.60;99.90;;;;;;5000474;28;20117;-62
2023/10/30 00:34:16;;;;;;;0.90;0.50;;;13.60;99.90;;;;;;4998256;28;20030;-63
2023/10/30 00:36:42;;;;;;;1.08;0.40;;;13.50;99.90;;;;;;5006163;28;20425;-62
2023/10/30 00:39:07;;;;;;;1.45;0.30;;;13.50;99.90;;;;;;5029026;28;20029;-62
2023/10/30 00:41:33;;;;;;;0.65;0.35;;;13.50;99.90;;;;;;5004314;28;20572;-63
2023/10/30 00:43:59;;;;;;;0.95;0.40;;;13.60;99.90;;;;;;4996158;28;20750;-62
2023/10/30 00:46:25;;;;;;;3.63;0.30;;;13.60;99.90;;;;;;5005097;28;20034;-64
2023/10/30 00:48:50;;;;;;;1.20;0.13;;;13.60;99.90;;;;;;4998472;28;20442;-62
2023/10/30 00:51:16;;;;;;;1.45;0.20;;;13.50;99.90;;;;;;5001072;28;20034;-62
2023/10/30 00:53:42;;;;;;;1.33;0.40;;;13.50;99.90;;;;;;5000127;28;20468;-62
2023/10/30 00:56:08;;;;;;;1.13;0.40;;;13.50;99.90;;;;;;5000124;28;20036;-62
2023/10/30 00:58:34;;;;;;;1.10;0.50;;;13.60;99.90;;;;;;5005392;28;20034;-62
2023/10/30 01:01:01;;;;;;;1.23;0.30;;;13.50;99.90;;;;;;5001479;28;20065;-62
2023/10/30 01:03:27;;;;;;;2.97;0.40;;;13.60;99.90;;;;;;4998988;28;20076;-62
2023/10/30 01:06:00;;;;;;;1.55;0.30;;;13.60;99.90;;;;;;5033612;28;20138;-62
2023/10/30 01:08:26;;;;;;;1.65;0.40;;;13.70;99.90;;;;;;4999096;28;20034;-62
2023/10/30 01:10:53;;;;;;;1.23;0.73;;;13.70;99.90;;;;;;5002159;28;20041;-62
2023/10/30 01:13:19;;;;;;;2.17;0.30;;;13.70;99.90;;;;;;4999384;28;20049;-62
2023/10/30 01:15:44;;;;;;;1.92;0.60;;;13.70;99.90;;;;;;5033963;28;20022;-62
2023/10/30 01:18:11;;;;;;;0.68;0.32;;;13.70;99.90;;;;;;4999266;28;20082;-62
2023/10/30 01:20:40;;;;;;;3.10;0.43;;;13.60;99.90;;;;;;4998179;28;20026;-62
2023/10/30 01:23:06;;;;;;;3.20;0.40;;;13.50;99.90;;;;;;4997918;28;20038;-62
2023/10/30 01:25:32;;;;;;;0.60;0.47;;;13.40;99.90;;;;;;5002096;28;20502;-62
2023/10/30 01:27:58;;;;;;;2.80;0.38;;;13.40;99.90;;;;;;5000643;28;20103;-63
2023/10/30 01:30:23;;;;;;;1.90;0.32;;;13.40;99.90;;;;;;4999830;28;20486;-62
2023/10/30 01:32:49;;;;;;;0.52;0.50;;;13.50;99.90;;;;;;5002204;28;20029;-62
2023/10/30 01:35:15;;;;;;;4.68;0.60;;;13.40;99.90;;;;;;5000836;28;20029;-63
2023/10/30 01:37:42;;;;;;;1.95;0.60;;;13.40;99.90;;;;;;5002605;28;20053;-62
2023/10/30 01:40:09;;;;;;;2.83;0.50;;;13.40;99.90;;;;;;4998486;28;20030;-62
2023/10/30 01:42:35;;;;;;;2.28;0.60;;;13.40;99.90;;;;;;5004802;28;20057;-62
2023/10/30 01:45:01;;;;;;;1.00;0.13;;;13.50;99.90;;;;;;5016638;28;20034;-62
2023/10/30 01:47:27;;;;;;;1.33;0.17;;;13.60;99.90;;;;;;5033658;28;20037;-62
2023/10/30 01:49:54;;;;;;;0.80;0.30;;;13.50;99.90;;;;;;4998029;28;20588;-62
2023/10/30 01:52:20;;;;;;;1.80;0.65;;;13.50;99.90;;;;;;5001733;28;20145;-62
2023/10/30 01:54:48;;;;;;;2.25;0.60;;;13.40;99.90;;;;;;4999437;28;20132;-62
2023/10/30 01:57:20;;;;;;;1.00;0.30;;;13.40;99.90;;;;;;5016261;28;20040;-62
2023/10/30 01:59:45;;;;;;;1.70;0.25;;;13.50;99.90;;;;;;5005329;28;20044;-62
2023/10/30 02:02:11;;;;;;;2.88;0.30;;;13.40;99.90;;;;;;5032634;28;20042;-62
2023/10/30 02:04:38;;;;;;;4.22;0.50;;;13.40;99.90;;;;;;4999044;28;20108;-62
2023/10/30 02:07:04;;;;;;;2.03;0.40;;;13.30;99.90;;;;;;5002692;28;20731;-62
2023/10/30 02:09:33;;;;;;;2.22;0.30;;;13.40;99.90;;;;;;4997210;28;20029;-62
2023/10/30 02:11:59;;;;;;;0.30;0.28;;;13.50;99.90;;;;;;5001866;28;20037;-62
2023/10/30 02:14:24;;;;;;;0.77;0.30;;;13.40;99.90;;;;;;4997867;28;20030;-62
2023/10/30 02:16:51;;;;;;;2.15;0.57;;;13.40;99.90;;;;;;5004001;28;20109;-62
2023/10/30 02:19:22;;;;;;;1.30;0.50;;;13.40;99.90;;;;;;5001881;28;20087;-62
2023/10/30 02:21:50;;;;;;;2.33;0.40;;;13.40;99.90;;;;;;5002011;28;20057;-62
2023/10/30 02:24:16;;;;;;;4.10;0.60;;;13.50;99.90;;;;;;4997156;28;20076;-62
2023/10/30 02:26:42;;;;;;;1.13;0.30;;;13.60;99.90;;;;;;5003927;28;20037;-62
2023/10/30 02:29:08;;;;;;;3.70;0.60;;;13.60;99.90;;;;;;4996645;28;20089;-62
2023/10/30 02:31:35;;;;;;;1.40;0.38;;;13.60;99.90;;;;;;5000076;28;20364;-62
2023/10/30 02:34:02;;;;;;;0.68;0.30;;;13.60;99.90;;;;;;4997438;28;20057;-62
2023/10/30 02:36:28;;;;;;;2.28;0.50;;;13.60;99.90;;;;;;5001272;28;20041;-62
2023/10/30 02:38:54;;;;;;;4.20;1.95;;;13.50;99.90;;;;;;4998756;28;20048;-62
2023/10/30 02:41:20;;;;;;;2.58;0.50;;;13.60;99.90;;;;;;4998188;28;20038;-62
2023/10/30 02:43:46;;;;;;;2.15;0.22;;;13.60;99.90;;;;;;4999671;28;20179;-62
2023/10/30 02:46:12;;;;;;;2.53;0.40;;;13.70;99.90;;;;;;4997645;28;20132;-62
2023/10/30 02:48:38;;;;;;;1.13;0.40;;;13.60;99.90;;;;;;5000410;28;20048;-61
2023/10/30 02:51:04;;;;;;;1.25;0.38;;;13.60;99.90;;;;;;4997405;28;20036;-62
2023/10/30 02:53:30;;;;;;;1.08;0.30;;;13.60;99.90;;;;;;4999899;28;20390;-62
2023/10/30 02:55:56;;;;;;;1.90;0.40;;;13.70;99.90;;;;;;5029542;28;20025;-62
2023/10/30 02:58:23;;;;;;;5.60;0.77;;;13.70;99.90;;;;;;4999140;28;20038;-62
2023/10/30 03:00:53;;;;;;;3.42;0.50;;;13.80;99.90;;;;;;4996414;28;20112;-62
2023/10/30 03:03:19;;;;;;;1.30;0.22;;;13.80;99.90;;;;;;4999356;28;20101;-62
2023/10/30 03:05:45;;;;;;;3.83;0.30;;;13.80;99.90;;;;;;5029547;28;20509;-61
2023/10/30 03:08:11;;;;;;;2.05;0.68;;;13.80;99.90;;;;;;5031008;28;20034;-62
2023/10/30 03:10:37;;;;;;;1.58;0.30;;;13.80;99.90;;;;;;5003178;28;20061;-62
2023/10/30 03:13:03;;;;;;;2.03;0.50;;;13.90;99.90;;;;;;4999863;28;20715;-62
2023/10/30 03:15:28;;;;;;;3.05;0.63;;;13.90;99.90;;;;;;4995805;28;20069;-62
2023/10/30 03:17:54;;;;;;;4.90;0.40;;;13.90;99.90;;;;;;5001564;28;20910;-62
2023/10/30 03:20:20;;;;;;;0.35;0.30;;;13.80;99.90;;;;;;4994848;28;20041;-62
2023/10/30 03:22:46;;;;;;;0.50;0.40;;;13.90;99.90;;;;;;5002078;28;20433;-62
2023/10/30 03:25:12;;;;;;;2.53;0.40;;;13.90;99.90;;;;;;4994130;28;20057;-62
2023/10/30 03:27:37;;;;;;;2.55;0.52;;;13.90;99.90;;;;;;5002309;28;20061;-62
2023/10/30 03:30:04;;;;;;;1.55;0.25;;;13.90;99.90;;;;;;4996129;28;20047;-62
2023/10/30 03:32:32;;;;;;;0.57;0.20;;;13.90;99.90;;;;;;5002031;28;20113;-62
2023/10/30 03:34:59;;;;;;;1.08;0.43;;;13.90;99.90;;;;;;4997035;28;20120;-62
2023/10/30 03:37:25;;;;;;;3.88;0.50;;;13.90;99.90;;;;;;5001741;28;20034;-62
2023/10/30 03:39:50;;;;;;;4.10;0.40;;;13.80;99.90;;;;;;4998996;28;20092;-62
2023/10/30 03:42:17;;;;;;;0.88;0.30;;;13.80;99.90;;;;;;5015356;28;20133;-62
2023/10/30 03:44:43;;;;;;;1.02;0.45;;;13.80;99.90;;;;;;4997158;28;20037;-62
2023/10/30 03:47:09;;;;;;;3.45;0.50;;;13.80;99.90;;;;;;4996275;28;20846;-62
2023/10/30 03:49:35;;;;;;;1.17;0.43;;;13.70;99.90;;;;;;4999558;28;20026;-62
2023/10/30 03:52:02;;;;;;;1.75;0.40;;;13.70;99.90;;;;;;4995092;28;20038;-62
2023/10/30 03:54:27;;;;;;;3.42;0.40;;;13.80;99.90;;;;;;5001529;28;20038;-61
2023/10/30 03:56:53;;;;;;;0.98;0.40;;;13.70;99.90;;;;;;5001287;28;20048;-62
2023/10/30 03:59:20;;;;;;;1.05;0.30;;;13.60;99.90;;;;;;5033399;28;20049;-62
2023/10/30 04:01:45;;;;;;;0.95;0.20;;;13.60;99.90;;;;;;5001089;28;20033;-62
2023/10/30 04:04:11;;;;;;;0.98;0.30;;;13.60;99.90;;;;;;5003611;28;20109;-62
2023/10/30 04:06:37;;;;;;;1.27;1.05;;;13.70;99.90;;;;;;5001065;28;20030;-61
2023/10/30 04:09:05;;;;;;;1.15;0.40;;;13.70;99.90;;;;;;5004248;28;20037;-62
2023/10/30 04:11:30;;;;;;;2.10;0.32;;;13.70;99.90;;;;;;4999911;28;20748;-62
2023/10/30 04:13:56;;;;;;;0.95;0.30;;;13.70;99.90;;;;;;5000952;28;20040;-62
2023/10/30 04:16:22;;;;;;;5.15;0.70;;;13.70;99.90;;;;;;4999097;28;20445;-62
2023/10/30 04:18:48;;;;;;;2.25;0.30;;;13.70;99.90;;;;;;5004835;28;20036;-62
2023/10/30 04:21:14;;;;;;;2.92;0.60;;;13.70;99.90;;;;;;4998354;28;20030;-62
2023/10/30 04:23:42;;;;;;;3.80;0.50;;;13.70;99.90;;;;;;5004769;28;20630;-62
2023/10/30 04:26:09;;;;;;;1.65;0.80;;;13.80;99.90;;;;;;4998335;28;20091;-62
2023/10/30 04:28:35;;;;;;;4.13;0.45;;;13.70;99.90;;;;;;5004929;28;20153;-62
2023/10/30 04:31:01;;;;;;;3.60;0.45;;;13.70;99.90;;;;;;4998126;28;20714;-62
2023/10/30 04:33:27;;;;;;;3.08;1.25;;;13.70;99.90;;;;;;5004066;28;20034;-62
2023/10/30 04:35:55;;;;;;;2.92;0.43;;;13.70;99.90;;;;;;4999963;28;20107;-62
2023/10/30 04:38:24;;;;;;;3.97;0.20;;;13.70;99.90;;;;;;5003321;28;20038;-62
2023/10/30 04:40:49;;;;;;;2.03;0.40;;;13.70;99.90;;;;;;4999620;28;20134;-62
2023/10/30 04:43:15;;;;;;;3.55;0.47;;;13.70;99.90;;;;;;5002432;28;20030;-62
2023/10/30 04:45:41;;;;;;;1.45;0.25;;;13.70;99.90;;;;;;5004000;28;20030;-62
2023/10/30 04:48:07;;;;;;;4.63;0.73;;;13.60;99.90;;;;;;5001499;28;20033;-62
2023/10/30 04:50:32;;;;;;;0.85;0.25;;;13.70;99.90;;;;;;5001598;28;20037;-62
2023/10/30 04:52:58;;;;;;;2.30;0.50;;;13.70;99.90;;;;;;5002433;28;20034;-62
2023/10/30 04:55:24;;;;;;;1.98;0.40;;;13.60;99.90;;;;;;5000975;28;20101;-62
2023/10/30 04:57:50;;;;;;;2.50;0.50;;;13.70;99.90;;;;;;5002800;28;20713;-62
2023/10/30 05:00:16;;;;;;;2.03;0.40;;;13.60;99.90;;;;;;5000127;28;20038;-61
2023/10/30 05:02:46;;;;;;;3.65;0.43;;;13.50;99.90;;;;;;5002569;28;20030;-62
2023/10/30 05:05:12;;;;;;;2.47;0.38;;;13.60;99.90;;;;;;4999770;28;20081;-62
2023/10/30 05:07:37;;;;;;;2.38;0.50;;;13.60;99.90;;;;;;5002396;28;20072;-62
2023/10/30 05:10:03;;;;;;;1.42;0.60;;;13.60;99.90;;;;;;5000759;28;20033;-62
2023/10/30 05:12:29;;;;;;;2.20;0.60;;;13.60;99.90;;;;;;5001705;28;20037;-62
2023/10/30 05:14:55;;;;;;;2.53;0.63;;;13.60;99.90;;;;;;5000291;28;20055;-62
2023/10/30 05:17:21;;;;;;;1.77;0.43;;;13.50;99.90;;;;;;5000490;28;20054;-62
2023/10/30 05:19:47;;;;;;;5.28;0.63;;;13.40;99.90;;;;;;5002691;28;20040;-62
2023/10/30 05:22:12;;;;;;;1.17;0.95;;;13.40;99.90;;;;;;4998806;28;20117;-61
2023/10/30 05:24:38;;;;;;;2.38;0.55;;;13.40;99.90;;;;;;5002534;28;20080;-62
2023/10/30 05:27:04;;;;;;;4.35;0.50;;;13.30;99.90;;;;;;4999908;28;20042;-62
2023/10/30 05:29:29;;;;;;;3.72;0.45;;;13.20;99.90;;;;;;5002450;28;20196;-61
2023/10/30 05:31:57;;;;;;;2.60;0.55;;;13.20;99.90;;;;;;4999662;28;20129;-62
2023/10/30 05:34:26;;;;;;;2.17;0.30;;;13.20;99.90;;;;;;5001834;28;20114;-62
2023/10/30 05:36:52;;;;;;;0.82;0.30;;;13.20;99.90;;;;;;4998255;28;20026;-62
2023/10/30 05:39:17;;;;;;;2.25;0.60;;;13.30;99.90;;;;;;5001103;28;20040;-62
2023/10/30 05:41:43;;;;;;;5.25;0.50;;;13.30;99.90;;;;;;4999052;28;20034;-62
2023/10/30 05:44:09;;;;;;;2.47;0.60;;;13.30;99.90;;;;;;5000060;28;20038;-62
2023/10/30 05:46:35;;;;;;;2.42;0.50;;;13.30;99.90;;;;;;5002234;28;20037;-61
2023/10/30 05:49:00;;;;;;;2.92;0.38;;;13.40;99.90;;;;;;5000087;28;20038;-62
2023/10/30 05:51:26;;;;;;;2.10;0.60;;;13.40;99.90;;;;;;4997505;28;20188;-62
2023/10/30 05:53:52;;;;;;;1.95;0.40;;;13.40;99.90;;;;;;5000851;28;20036;-62
2023/10/30 05:56:18;;;;;;;4.55;0.68;;;13.40;99.90;;;;;;4997790;28;20030;-62
2023/10/30 05:58:43;;;;;;;2.17;0.63;;;13.40;99.90;;;;;;5000883;28;20036;-62
2023/10/30 06:01:09;;;;;;;0.63;0.32;;;13.40;99.90;;;;;;4999093;28;20060;-62
2023/10/30 06:03:35;;;;;;;2.95;0.28;;;13.50;99.90;;;;;;5001166;28;20029;-62
2023/10/30 06:06:01;;;;;;;0.75;0.40;;;13.40;99.90;;;;;;4998145;28;20025;-62
2023/10/30 06:08:27;;;;;;;1.17;0.40;;;13.50;99.90;;;;;;4999324;28;20041;-62
2023/10/30 06:10:53;;;;;;;1.02;0.40;;;13.40;99.90;;;;;;4997430;28;20042;-61
2023/10/30 06:13:18;;;;;;;2.88;0.40;;;13.40;99.90;;;;;;4998247;28;20038;-61
2023/10/30 06:15:44;;;;;;;2.47;0.85;;;13.40;99.90;;;;;;5000803;28;20025;-62
2023/10/30 06:18:10;;;;;;;1.23;0.47;;;13.50;99.90;;;;;;4998799;28;20030;-62
2023/10/30 06:20:36;;;;;;;2.63;0.70;;;13.40;99.90;;;;;;5001546;28;20411;-62
2023/10/30 06:23:03;;;;;;;3.38;0.50;;;13.40;99.90;;;;;;4998217;28;20088;-62
2023/10/30 06:25:29;;;;;;;2.45;0.47;;;13.40;99.90;;;;;;5000294;28;20148;-62
2023/10/30 06:27:55;;;;;;;3.50;0.98;;;13.40;99.90;;;;;;4998874;28;20317;-62
2023/10/30 06:30:21;;;;;;;4.38;0.40;;;13.50;99.90;;;;;;5000178;28;20125;-61
2023/10/30 06:32:47;;;;;;;0.95;0.40;;;13.50;99.90;;;;;;4998355;28;20125;-62
2023/10/30 06:35:13;;;;;;;0.68;0.30;;;13.50;99.90;;;;;;5000602;28;20040;-62
2023/10/30 06:37:38;;;;;;;1.98;0.60;;;13.60;99.90;;;;;;4998735;28;20455;-62
2023/10/30 06:40:04;;;;;;;2.38;0.70;;;13.70;99.90;;;;;;5001470;28;20048;-62
2023/10/30 06:42:30;;;;;;;6.07;0.60;;;13.70;99.90;;;;;;4997901;28;20041;-62
2023/10/30 06:44:56;;;;;;;0.98;0.45;;;13.60;99.90;;;;;;5003447;28;20402;-62
2023/10/30 06:47:22;;;;;;;9.35;0.82;;;13.70;99.90;;;;;;4998179;28;20042;-62
2023/10/30 06:49:48;;;;;;;1.30;0.75;;;13.70;99.90;;;;;;5003476;28;20025;-62
2023/10/30 06:52:13;;;;;;;2.65;0.57;;;13.80;99.90;;;;;;4995899;28;20030;-62
2023/10/30 06:54:39;;;;;;;3.08;0.57;;;13.90;99.90;;;;;;4999700;28;20034;-62
2023/10/30 06:57:05;;;;;;;2.70;0.63;;;13.80;99.90;;;;;;5000161;28;20034;-61
2023/10/30 06:59:31;;;;;;;3.25;0.60;;;13.90;99.90;;;;;;4999471;28;20029;-62
2023/10/30 07:01:57;;;;;;;3.10;0.60;;;14.00;99.90;;;;;;4999783;28;20037;-62
2023/10/30 07:04:24;;;;;;;4.72;0.50;;;14.00;99.90;;;;;;4997943;28;20044;-62
2023/10/30 07:06:50;;;;;;;2.72;0.50;;;14.10;99.90;;;;;;5003008;28;20040;-62
2023/10/30 07:09:17;;;;;;;2.33;0.40;;;14.20;99.90;;;;;;4997564;28;20106;-62
2023/10/30 07:11:44;;;;;;;3.22;0.90;;;14.20;99.90;;;;;;5000074;28;20057;-62
2023/10/30 07:14:10;;;;;;;5.53;0.70;;;14.20;99.90;;;;;;4996522;28;20045;-62
2023/10/30 07:16:36;;;;;;;3.10;0.70;;;14.20;99.90;;;;;;4999956;28;20109;-62
2023/10/30 07:19:02;;;;;;;7.63;1.10;;;14.20;99.90;;;;;;4997301;28;20030;-61
2023/10/30 07:21:28;;;;;;;2.90;0.60;;;14.00;99.90;;;;;;4999116;28;20034;-62
2023/10/30 07:23:55;;;;;;;2.72;0.60;;;14.00;99.90;;;;;;4997673;28;20038;-62
2023/10/30 07:26:21;;;;;;;1.40;0.35;;;13.90;99.90;;;;;;5014004;28;20038;-62
2023/10/30 07:28:48;;;;;;;3.03;0.88;;;14.00;99.90;;;;;;5001440;28;20037;-62
2023/10/30 07:31:14;;;;;;;3.17;0.55;;;14.00;99.90;;;;;;5002963;28;20030;-62
2023/10/30 07:33:40;;;;;;;3.95;0.70;;;14.00;99.90;;;;;;5001544;28;20474;-62
2023/10/30 07:36:06;;;;;;;1.23;0.30;;;14.00;99.90;;;;;;5003685;28;20041;-62
2023/10/30 07:38:32;;;;;;;8.13;0.90;;;13.90;99.90;;;;;;5004243;28;20026;-62
2023/10/30 07:40:58;;;;;;;3.75;0.50;;;13.90;99.90;;;;;;5005153;28;20489;-60
2023/10/30 07:43:24;;;;;;;3.35;1.00;;;14.00;99.90;;;;;;4981849;28;20035;-65
2023/10/30 07:45:50;;;;;;;0.95;0.60;;;14.00;99.90;;;;;;5006584;28;20072;-61
2023/10/30 07:48:16;;;;;;;1.67;0.40;;;14.10;99.90;;;;;;5013684;28;20059;-62
2023/10/30 07:50:45;;;;;;;4.95;1.00;;;14.20;99.90;;;;;;5005270;28;20104;-62
2023/10/30 07:53:11;;;;;;;2.05;0.68;;;14.20;99.90;;;;;;5030167;28;20034;-62
2023/10/30 07:55:38;;;;;;;6.43;0.68;;;14.30;99.90;;;;;;5007053;28;20033;-62
2023/10/30 07:58:05;;;;;;;1.58;0.50;;;14.40;99.90;;;;;;4999515;28;20137;-62
2023/10/30 08:00:31;;;;;;;5.07;0.95;;;14.50;99.90;;;;;;5005215;28;20033;-62
2023/10/30 08:02:58;;;;;;;3.22;0.90;;;14.50;99.90;;;;;;5000183;28;20065;-62
2023/10/30 08:05:23;;;;;;;3.67;0.95;;;14.50;99.90;;;;;;5000285;28;20046;-62
2023/10/30 08:07:49;;;;;;;2.15;0.50;;;14.50;99.90;;;;;;5001789;28;20034;-62
2023/10/30 08:10:15;;;;;;;5.97;1.08;;;14.50;99.90;;;;;;5002992;28;20084;-62
2023/10/30 08:12:41;;;;;;;1.45;0.70;;;14.60;99.90;;;;;;5002521;28;20534;-62
2023/10/30 08:15:07;;;;;;;2.10;0.60;;;14.60;99.90;;;;;;5002343;28;20030;-62
2023/10/30 08:17:33;;;;;;;3.83;0.93;;;14.60;99.90;;;;;;5002737;28;20399;-62
2023/10/30 08:19:59;;;;;;;5.38;3.10;;;14.60;99.90;;;;;;5003443;28;20080;-62
2023/10/30 08:22:25;;;;;;;5.28;1.90;;;14.60;99.90;;;;;;5000598;28;20666;-62
2023/10/30 08:24:51;;;;;;;4.13;0.75;;;14.60;99.90;;;;;;5003050;28;20030;-62
2023/10/30 08:27:18;;;;;;;3.22;0.68;;;14.70;99.90;;;;;;5000678;28;20034;-62
2023/10/30 08:29:43;;;;;;;4.13;0.90;;;14.80;99.90;;;;;;4999546;28;20092;-62
2023/10/30 08:32:09;;;;;;;3.83;1.00;;;14.80;99.90;;;;;;5001300;28;20030;-63
2023/10/30 08:34:35;;;;;;;2.53;0.77;;;14.90;99.90;;;;;;4999340;28;20033;-62
2023/10/30 08:37:01;;;;;;;2.95;0.85;;;14.90;99.90;;;;;;5002316;28;20060;-62
2023/10/30 08:39:27;;;;;;;5.35;1.05;;;14.90;99.90;;;;;;5013188;28;20752;-62
2023/10/30 08:41:53;;;;;;;1.52;0.60;;;15.00;99.90;;;;;;5003605;28;20030;-62
2023/10/30 08:44:19;;;;;;;4.80;0.70;;;15.00;99.90;;;;;;4996716;28;20046;-62
2023/10/30 08:46:44;;;;;;;4.07;1.02;;;15.00;99.90;;;;;;5004800;28;20064;-62
2023/10/30 08:49:10;;;;;;;2.33;0.73;;;15.00;99.90;;;;;;4996993;28;20044;-63
2023/10/30 08:51:40;;;;;;;4.22;0.95;;;15.10;99.90;;;;;;5003588;28;20565;-62
2023/10/30 08:54:06;;;;;;;3.33;0.60;;;15.20;99.90;;;;;;4997439;28;20031;-63
2023/10/30 08:56:32;;;;;;;1.65;0.70;;;15.20;99.90;;;;;;5003823;28;20022;-63
2023/10/30 08:58:58;;;;;;;3.38;1.15;;;15.30;99.90;;;;;;4998471;28;20038;-62
2023/10/30 09:01:24;;;;;;;4.30;0.65;;;15.40;99.90;;;;;;5002995;28;20061;-63
2023/10/30 09:03:52;;;;;;;4.82;1.98;;;15.40;99.90;;;;;;4998426;28;20029;-62
2023/10/30 09:06:18;;;;;;;3.50;1.17;;;15.40;99.90;;;;;;5001532;28;20466;-62
2023/10/30 09:08:44;;;;;;;1.70;1.05;;;15.50;99.90;;;;;;5000397;28;20034;-62
2023/10/30 09:11:10;;;;;;;1.58;0.55;;;15.50;99.90;;;;;;5001125;28;20038;-62
2023/10/30 09:13:35;;;;;;;2.47;0.50;;;15.50;99.90;;;;;;4998712;28;20041;-62
2023/10/30 09:16:01;;;;;;;4.38;1.00;;;15.50;99.90;;;;;;5001063;28;20034;-63
2023/10/30 09:18:27;;;;;;;6.47;2.72;;;15.40;99.90;;;;;;5017092;28;20033;-63
2023/10/30 09:20:53;;;;;;;5.45;1.30;;;15.30;99.90;;;;;;5001538;28;20041;-63
2023/10/30 09:23:19;;;;;;;1.02;0.80;;;15.40;99.90;;;;;;4998736;28;20098;-63
2023/10/30 09:25:44;;;;;;;7.22;3.28;;;15.50;99.90;;;;;;5001554;28;20038;-63
2023/10/30 09:28:11;;;;;;;8.38;4.15;;;15.50;99.90;;;;;;4999122;28;20030;-62
2023/10/30 09:30:37;;;;;;;5.78;3.55;;;15.60;99.90;;;;;;5001397;28;20451;-62
2023/10/30 09:33:03;;;;;;;7.00;1.70;;;15.60;99.90;;;;;;5000462;28;20030;-62
2023/10/30 09:35:30;;;;;;;5.13;2.08;;;15.70;99.90;;;;;;5000196;28;20026;-62
2023/10/30 09:37:56;;;;;;;8.82;4.57;;;15.80;99.90;;;;;;5001903;28;20029;-64
2023/10/30 09:40:26;;;;;;;9.15;3.53;;;15.90;99.90;;;;;;5004515;28;20042;-63
2023/10/30 09:42:55;;;;;;;6.20;2.05;;;15.90;99.90;;;;;;5001720;28;20030;-63
2023/10/30 09:45:25;;;;;;;3.38;1.20;;;16.00;99.90;;;;;;4998227;28;20069;-63
2023/10/30 09:47:55;;;;;;;2.67;0.88;;;16.10;99.90;;;;;;5003491;28;20538;-63
2023/10/30 09:50:22;;;;;;;2.72;0.90;;;16.10;99.90;;;;;;4995504;28;20042;-63
2023/10/30 09:52:50;;;;;;;6.15;1.17;;;16.10;99.90;;;;;;5002072;28;20205;-64
2023/10/30 09:55:23;;;;;;;3.47;1.30;;;16.10;99.90;;;;;;4994984;28;20034;-63
2023/10/30 09:57:53;;;;;;;5.65;1.00;;;16.10;99.90;;;;;;4998854;28;20410;-63
2023/10/30 10:00:20;;;;;;;17.42;8.88;;;16.10;99.90;;;;;;4996256;28;20068;-62
2023/10/30 10:02:47;;;;;;;4.35;1.45;;;16.10;99.90;;;;;;5002253;28;20153;-62
2023/10/30 10:05:14;;;;;;;2.35;0.98;;;16.10;99.90;;;;;;4995026;28;20112;-63
2023/10/30 10:07:41;;;;;;;14.25;9.90;;;16.20;99.90;;;;;;5003394;28;20034;-63
2023/10/30 10:10:12;;;;;;;5.00;0.93;;;16.20;99.90;;;;;;4995989;28;20038;-62
2023/10/30 10:12:37;;;;;;;14.75;3.63;;;16.10;99.90;;;;;;4996538;28;20033;-63
2023/10/30 10:15:06;;;;;;;4.68;0.85;;;16.10;99.90;;;;;;4995827;28;20034;-64
2023/10/30 10:17:44;;;;;;;3.30;0.77;;;16.10;99.90;;;;;;5001987;28;20479;-62
2023/10/30 10:20:11;;;;;;;5.05;0.50;;;16.10;99.90;;;;;;4994936;28;20038;-62
2023/10/30 10:22:37;;;;;;;2.42;0.55;;;16.10;99.90;;;;;;4996672;28;20049;-63
2023/10/30 10:25:05;;;;;;;2.75;0.80;;;16.10;99.90;;;;;;4998810;28;20044;-63
2023/10/30 10:27:30;;;;;;;4.20;0.98;;;16.20;99.90;;;;;;5001359;28;20045;-63
2023/10/30 10:29:57;;;;;;;3.15;0.77;;;16.30;99.90;;;;;;4997580;28;20034;-62
2023/10/30 10:32:28;;;;;;;6.50;0.63;;;16.30;99.90;;;;;;5002068;28;20041;-62
2023/10/30 10:35:02;;;;;;;1.73;0.98;;;16.20;99.90;;;;;;4996634;28;20058;-62
2023/10/30 10:37:29;;;;;;;2.40;0.70;;;16.10;99.90;;;;;;5001733;28;20467;-62
2023/10/30 10:39:55;;;;;;;4.60;1.83;;;16.10;99.90;;;;;;4997900;28;20038;-62
2023/10/30 10:42:23;;;;;;;6.60;0.90;;;16.10;99.90;;;;;;5000270;28;20458;-63
2023/10/30 10:44:54;;;;;;;3.75;0.70;;;16.10;99.90;;;;;;4998307;28;20034;-63
2023/10/30 10:47:22;;;;;;;1.08;0.50;;;16.10;99.90;;;;;;5000335;28;20046;-63
2023/10/30 10:49:49;;;;;;;5.40;1.17;;;16.20;99.90;;;;;;4998163;28;20034;-63
2023/10/30 10:52:17;;;;;;;5.95;1.20;;;16.30;99.90;;;;;;4999746;28;20435;-63
2023/10/30 10:54:52;;;;;;;7.25;1.25;;;17.40;99.90;;;;;;4999199;28;20069;-63
2023/10/30 10:57:20;;;;;;;3.65;1.00;;;18.90;96.90;;;;;;4999038;28;20030;-63
2023/10/30 10:59:55;;;;;;;3.22;0.73;;;19.30;96.10;;;;;;4998175;28;20842;-62
2023/10/30 11:02:29;;;;;;;3.75;0.57;;;18.70;96.60;;;;;;5000080;28;20042;-63
2023/10/30 11:04:57;;;;;;;2.97;1.33;;;18.30;97.60;;;;;;4995345;28;20115;-62
2023/10/30 11:07:35;;;;;;;3.90;0.80;;;18.00;98.10;;;;;;4998060;28;20372;-62
2023/10/30 11:10:06;;;;;;;4.15;0.73;;;17.80;98.80;;;;;;4996762;28;20490;-62
2023/10/30 11:13:06;;;;;;;5.47;0.60;;;17.50;99.00;;;;;;4998684;28;20049;-62
2023/10/30 11:15:36;;;;;;;3.33;0.70;;;17.30;99.20;;;;;;4997385;28;20037;-62
2023/10/30 11:18:15;;;;;;;2.20;0.60;;;17.10;99.20;;;;;;4998356;28;20080;-62
2023/10/30 11:20:45;;;;;;;3.22;1.58;;;17.10;99.40;;;;;;5000058;28;20087;-62
2023/10/30 11:23:12;;;;;;;4.95;2.10;;;17.20;99.90;;;;;;4998311;28;20581;-63
2023/10/30 11:25:42;;;;;;;3.75;1.13;;;17.40;99.90;;;;;;4996536;28;20037;-62
2023/10/30 11:28:08;;;;;;;4.78;0.60;;;17.50;99.40;;;;;;4999985;28;20483;-62
2023/10/30 11:30:48;;;;;;;8.23;0.80;;;17.60;98.80;;;;;;4997881;28;20036;-63
2023/10/30 11:33:19;;;;;;;4.13;1.83;;;17.60;99.20;;;;;;4998074;28;20026;-63
2023/10/30 11:35:46;;;;;;;5.07;1.23;;;17.50;98.60;;;;;;5002329;28;20026;-62
2023/10/30 11:38:16;;;;;;;3.97;1.30;;;17.50;98.80;;;;;;4999462;28;20037;-62
2023/10/30 11:40:42;;;;;;;3.33;0.95;;;17.40;98.80;;;;;;4997739;28;20544;-62
2023/10/30 11:43:09;;;;;;;7.13;1.70;;;17.30;98.90;;;;;;4998917;28;20040;-63
2023/10/30 11:45:40;;;;;;;4.32;1.05;;;17.30;99.00;;;;;;4998034;28;20504;-62
2023/10/30 11:48:07;;;;;;;5.05;0.95;;;17.20;98.30;;;;;;4997974;28;20133;-62
2023/10/30 11:50:38;;;;;;;5.35;0.85;;;17.10;98.60;;;;;;4998100;28;20120;-63
2023/10/30 11:53:08;;;;;;;3.05;2.05;;;17.00;99.10;;;;;;4998661;28;20176;-65
2023/10/30 11:55:38;;;;;;;5.35;1.65;;;16.90;98.80;;;;;;4996803;28;20131;-63
2023/10/30 11:58:04;;;;;;;13.60;5.18;;;16.80;99.00;;;;;;4998146;28;20164;-63
2023/10/30 12:00:30;;;;;;;7.97;3.25;;;16.70;99.10;;;;;;4998062;28;20101;-63
2023/10/30 12:02:57;;;;;;;4.97;2.35;;;16.70;99.40;;;;;;4998984;28;20712;-63
2023/10/30 12:05:25;;;;;;;5.82;2.22;;;16.70;99.10;;;;;;4996906;28;20034;-63
2023/10/30 12:07:51;;;;;;;7.75;1.73;;;16.70;99.60;;;;;;4998783;28;20566;-63
2023/10/30 12:10:18;;;;;;;13.43;4.57;;;16.70;99.10;;;;;;4999564;28;20136;-63
2023/10/30 12:12:44;;;;;;;6.10;2.78;;;16.80;99.00;;;;;;4999358;28;20041;-61
2023/10/30 12:15:10;;;;;;;4.68;1.13;;;16.80;99.10;;;;;;4999463;28;20039;-63
2023/10/30 12:17:36;;;;;;;4.22;1.65;;;16.60;98.40;;;;;;5002742;28;20030;-63
2023/10/30 12:20:03;;;;;;;5.18;1.90;;;16.50;99.10;;;;;;5001739;28;20038;-63
2023/10/30 12:22:29;;;;;;;5.22;1.70;;;16.50;99.30;;;;;;4999247;28;20042;-63
2023/10/30 12:24:57;;;;;;;2.33;0.63;;;16.50;99.80;;;;;;5002186;28;20042;-63
2023/10/30 12:27:23;;;;;;;3.97;0.70;;;16.70;99.50;;;;;;4998524;28;20091;-63
2023/10/30 12:29:55;;;;;;;5.53;1.75;;;16.70;99.40;;;;;;5003469;28;20065;-62
2023/10/30 12:32:21;;;;;;;8.20;0.80;;;16.80;99.70;;;;;;5001260;28;20118;-63
2023/10/30 12:34:47;;;;;;;4.50;2.25;;;16.80;99.20;;;;;;5003641;28;20121;-63
2023/10/30 12:37:16;;;;;;;10.70;6.13;;;16.90;99.40;;;;;;4997267;28;20070;-63
2023/10/30 12:40:00;;;;;;;6.32;1.42;;;16.90;99.10;;;;;;5003004;28;20037;-62
2023/10/30 12:42:26;;;;;;;6.32;1.73;;;17.00;99.20;;;;;;4998529;28;20111;-62